createdAt,value
2018-03-14T00:01:08.533Z,5.28
2018-03-14T00:03:37.338Z,5.03
2018-03-14T00:06:06.166Z,8.23
2018-03-14T00:08:34.209Z,7.65
2018-03-14T00:11:03.050Z,7.40
2018-03-14T00:13:31.085Z,6.93
2018-03-14T00:15:59.141Z,6.95
2018-03-14T00:18:27.310Z,8.15
2018-03-14T00:20:55.360Z,5.37
2018-03-14T00:23:24.185Z,6.80
2018-03-14T00:25:52.224Z,6.40
2018-03-14T00:28:20.283Z,7.30
2018-03-14T00:30:48.313Z,9.02
2018-03-14T00:33:17.138Z,5.25
2018-03-14T00:35:45.188Z,6.72
2018-03-14T00:38:13.991Z,5.75
2018-03-14T00:40:42.816Z,6.40
2018-03-14T00:43:10.853Z,6.40
2018-03-14T00:45:38.916Z,6.57
2018-03-14T00:48:06.948Z,4.60
2018-03-14T00:50:35.770Z,6.47
2018-03-14T00:53:03.820Z,2.47
2018-03-14T00:55:31.857Z,3.80
2018-03-14T00:57:59.916Z,4.57
2018-03-14T01:00:28.809Z,4.60
2018-03-14T01:02:57.628Z,4.85
2018-03-14T01:05:25.661Z,4.90
2018-03-14T01:07:54.512Z,3.00
2018-03-14T01:10:22.574Z,3.55
2018-03-14T01:12:51.383Z,4.37
2018-03-14T01:15:20.325Z,6.40
2018-03-14T01:17:48.373Z,4.15
2018-03-14T01:20:17.194Z,7.03
2018-03-14T01:22:45.240Z,7.05
2018-03-14T01:25:13.420Z,6.25
2018-03-14T01:27:41.408Z,5.82
2018-03-14T01:30:09.396Z,7.18
2018-03-14T01:32:38.158Z,6.55
2018-03-14T01:35:06.154Z,8.15
2018-03-14T01:37:34.168Z,7.97
2018-03-14T01:40:02.133Z,8.93
2018-03-14T01:42:30.903Z,7.05
2018-03-14T01:44:58.890Z,8.77
2018-03-14T01:47:26.883Z,9.65
2018-03-14T01:49:54.876Z,7.65
2018-03-14T01:52:24.389Z,7.32
2018-03-14T01:54:52.434Z,11.00
2018-03-14T01:57:20.372Z,10.10
2018-03-14T01:59:49.128Z,6.75
2018-03-14T02:02:17.139Z,8.55
2018-03-14T02:04:45.124Z,9.75
2018-03-14T02:07:13.107Z,8.82
2018-03-14T02:09:41.105Z,8.00
2018-03-14T02:12:09.868Z,7.30
2018-03-14T02:14:37.857Z,7.35
2018-03-14T02:17:05.852Z,9.75
2018-03-14T02:19:33.852Z,10.15
2018-03-14T02:22:02.604Z,8.15
2018-03-14T02:24:30.608Z,8.70
2018-03-14T02:26:58.609Z,7.40
2018-03-14T02:29:26.592Z,8.43
2018-03-14T02:31:55.368Z,7.53
2018-03-14T02:34:23.364Z,6.43
2018-03-14T02:37:01.376Z,7.47
2018-03-14T02:39:30.164Z,8.07
2018-03-14T02:41:58.147Z,9.50
2018-03-14T02:44:26.141Z,9.82
2018-03-14T02:46:54.140Z,8.73
2018-03-14T02:49:22.127Z,10.05
2018-03-14T02:51:50.901Z,7.20
2018-03-14T02:54:18.919Z,7.57
2018-03-14T02:56:46.880Z,9.23
2018-03-14T02:59:14.876Z,9.85
2018-03-14T03:01:43.636Z,8.98
2018-03-14T03:04:11.616Z,6.85
2018-03-14T03:06:39.612Z,8.93
2018-03-14T03:09:07.613Z,11.10
2018-03-14T03:11:35.604Z,7.25
2018-03-14T03:14:03.604Z,9.27
2018-03-14T03:16:32.364Z,9.45
2018-03-14T03:19:00.349Z,6.15
2018-03-14T03:21:28.343Z,7.68
2018-03-14T03:23:56.348Z,6.75
2018-03-14T03:26:25.094Z,7.65
2018-03-14T03:28:53.296Z,7.53
2018-03-14T03:31:21.293Z,8.85
2018-03-14T03:33:49.285Z,6.87
2018-03-14T03:36:17.272Z,8.70
2018-03-14T03:38:46.036Z,8.07
2018-03-14T03:41:14.019Z,7.22
2018-03-14T03:43:42.020Z,7.15
2018-03-14T03:46:10.020Z,8.20
2018-03-14T03:48:38.000Z,8.48
2018-03-14T03:51:06.768Z,5.97
2018-03-14T03:53:34.811Z,5.87
2018-03-14T03:56:02.748Z,6.43
2018-03-14T03:58:30.744Z,6.25
2018-03-14T04:00:58.736Z,5.20
2018-03-14T04:03:27.492Z,6.35
2018-03-14T04:05:55.488Z,5.22
2018-03-14T04:08:23.484Z,6.25
2018-03-14T04:10:51.513Z,6.35
2018-03-14T04:13:19.464Z,5.53
2018-03-14T04:15:48.234Z,5.75
2018-03-14T04:18:16.216Z,6.53
2018-03-14T04:20:44.224Z,6.00
2018-03-14T04:23:12.214Z,6.35
2018-03-14T04:25:40.968Z,7.53
2018-03-14T04:28:08.969Z,6.07
2018-03-14T04:30:36.964Z,6.28
2018-03-14T04:33:04.948Z,7.43
2018-03-14T04:35:33.713Z,9.95
2018-03-14T04:38:01.712Z,7.15
2018-03-14T04:40:29.697Z,6.72
2018-03-14T04:42:57.687Z,7.60
2018-03-14T04:45:25.684Z,8.35
2018-03-14T04:47:53.668Z,6.75
2018-03-14T04:50:21.668Z,6.12
2018-03-14T04:52:50.447Z,8.27
2018-03-14T04:55:18.436Z,6.40
2018-03-14T04:57:47.199Z,7.25
2018-03-14T05:00:15.196Z,8.02
2018-03-14T05:02:43.179Z,7.28
2018-03-14T05:05:11.176Z,7.72
2018-03-14T05:07:39.172Z,5.57
2018-03-14T05:10:07.921Z,12.80
2018-03-14T05:12:35.928Z,8.52
2018-03-14T05:15:03.924Z,9.20
2018-03-14T05:17:31.904Z,8.43
2018-03-14T05:19:59.899Z,10.00
2018-03-14T05:22:28.668Z,8.45
2018-03-14T05:24:56.651Z,8.70
2018-03-14T05:27:24.645Z,8.73
2018-03-14T05:29:52.645Z,7.75
2018-03-14T05:32:20.624Z,12.68
2018-03-14T05:34:49.391Z,8.15
2018-03-14T05:37:17.393Z,11.12
2018-03-14T05:39:45.377Z,10.63
2018-03-14T05:42:13.378Z,9.15
2018-03-14T05:44:42.139Z,8.73
2018-03-14T05:47:10.136Z,10.30
2018-03-14T05:49:38.137Z,7.40
2018-03-14T05:52:06.139Z,11.98
2018-03-14T05:54:34.884Z,12.07
2018-03-14T05:57:02.879Z,9.38
2018-03-14T05:59:30.879Z,9.30
2018-03-14T06:02:00.420Z,10.38
2018-03-14T06:04:30.297Z,9.48
2018-03-14T06:06:58.317Z,9.90
2018-03-14T06:09:26.312Z,10.00
2018-03-14T06:11:55.073Z,12.13
2018-03-14T06:14:23.068Z,7.87
2018-03-14T06:16:51.062Z,11.32
2018-03-14T06:19:19.060Z,13.93
2018-03-14T06:21:47.821Z,9.10
2018-03-14T06:24:15.818Z,11.00
2018-03-14T06:26:43.808Z,11.45
2018-03-14T06:29:11.804Z,8.32
2018-03-14T06:31:40.551Z,10.00
2018-03-14T06:34:08.551Z,9.38
2018-03-14T06:36:36.552Z,9.65
2018-03-14T06:39:04.548Z,14.10
2018-03-14T06:41:33.320Z,11.23
2018-03-14T06:44:01.320Z,11.90
2018-03-14T06:46:29.304Z,10.85
2018-03-14T06:48:57.301Z,9.93
2018-03-14T06:51:26.064Z,12.15
2018-03-14T06:53:54.048Z,9.45
2018-03-14T06:56:22.052Z,10.48
2018-03-14T06:59:01.971Z,9.75
2018-03-14T07:01:41.768Z,14.95
2018-03-14T07:04:21.560Z,11.45
2018-03-14T07:06:49.568Z,11.05
2018-03-14T07:09:17.574Z,11.35
2018-03-14T07:11:45.561Z,10.07
2018-03-14T07:14:13.564Z,11.55
2018-03-14T07:16:41.560Z,11.65
2018-03-14T07:19:10.316Z,13.75
2018-03-14T07:21:38.312Z,9.60
2018-03-14T07:24:06.317Z,15.52
2018-03-14T07:26:34.300Z,8.65
2018-03-14T07:29:03.070Z,11.63
2018-03-14T07:31:31.076Z,11.60
2018-03-14T07:33:59.065Z,13.52
2018-03-14T07:36:27.066Z,13.35
2018-03-14T07:38:55.832Z,12.68
2018-03-14T07:41:23.821Z,12.40
2018-03-14T07:43:51.824Z,12.48
2018-03-14T07:46:20.584Z,10.23
2018-03-14T07:48:48.576Z,12.25
2018-03-14T07:51:16.575Z,13.40
2018-03-14T07:53:45.351Z,10.85
2018-03-14T07:56:13.344Z,14.68
2018-03-14T07:58:41.344Z,12.02
2018-03-14T08:01:10.514Z,11.50
2018-03-14T08:03:40.214Z,10.30
2018-03-14T08:06:08.222Z,16.08
2018-03-14T08:08:36.220Z,11.90
2018-03-14T08:11:04.208Z,16.42
2018-03-14T08:13:33.834Z,12.48
2018-03-14T08:16:01.740Z,16.35
2018-03-14T08:18:30.496Z,14.60
2018-03-14T08:20:58.491Z,16.15
2018-03-14T08:23:26.497Z,15.05
2018-03-14T08:25:55.248Z,15.40
2018-03-14T08:28:23.251Z,13.40
2018-03-14T08:30:51.247Z,15.50
2018-03-14T08:33:19.247Z,11.50
2018-03-14T08:35:48.008Z,13.40
2018-03-14T08:38:16.008Z,13.23
2018-03-14T08:40:44.004Z,14.10
2018-03-14T08:43:12.009Z,13.88
2018-03-14T08:45:40.772Z,10.05
2018-03-14T08:48:08.760Z,14.45
2018-03-14T08:50:37.526Z,14.05
2018-03-14T08:53:05.528Z,14.93
2018-03-14T08:55:33.511Z,10.23
2018-03-14T08:58:01.511Z,13.45
2018-03-14T09:00:29.517Z,14.10
2018-03-14T09:02:58.264Z,13.62
2018-03-14T09:05:26.281Z,15.40
2018-03-14T09:07:54.276Z,11.20
2018-03-14T09:10:23.029Z,11.50
2018-03-14T09:12:51.039Z,11.68
2018-03-14T09:15:19.033Z,11.02
2018-03-14T09:17:47.783Z,9.57
2018-03-14T09:20:15.784Z,10.00
2018-03-14T09:22:43.780Z,9.85
2018-03-14T09:25:11.821Z,9.65
2018-03-14T09:27:39.768Z,12.20
2018-03-14T09:30:08.541Z,8.75
2018-03-14T09:32:36.532Z,9.27
2018-03-14T09:35:04.540Z,10.70
2018-03-14T09:37:33.300Z,12.45
2018-03-14T09:40:01.287Z,11.48
2018-03-14T09:42:29.296Z,9.30
2018-03-14T09:44:58.065Z,13.00
2018-03-14T09:47:26.051Z,9.65
2018-03-14T09:49:54.056Z,9.95
2018-03-14T09:52:22.048Z,8.48
2018-03-14T09:54:50.813Z,10.68
2018-03-14T09:57:18.808Z,8.98
2018-03-14T09:59:46.803Z,9.73
2018-03-14T10:02:14.784Z,9.57
2018-03-14T10:04:42.789Z,9.85
2018-03-14T10:07:11.560Z,12.45
2018-03-14T10:09:39.543Z,11.63
2018-03-14T10:12:08.513Z,9.57
2018-03-14T10:14:36.512Z,9.00
2018-03-14T10:17:04.496Z,8.32
2018-03-14T10:19:32.495Z,9.07
2018-03-14T10:22:00.505Z,7.62
2018-03-14T10:24:29.246Z,7.60
2018-03-14T10:26:57.241Z,9.02
2018-03-14T10:29:25.253Z,10.10
2018-03-14T10:31:53.236Z,6.65
2018-03-14T10:34:22.004Z,11.12
2018-03-14T10:36:50.034Z,9.05
2018-03-14T10:39:17.976Z,9.90
2018-03-14T10:41:45.980Z,10.23
2018-03-14T10:44:13.989Z,12.52
2018-03-14T10:46:41.976Z,18.08
2018-03-14T10:49:09.998Z,9.68
2018-03-14T10:51:37.976Z,7.80
2018-03-14T10:54:05.956Z,8.27
2018-03-14T10:56:33.952Z,13.70
2018-03-14T10:59:01.957Z,9.52
2018-03-14T11:01:35.681Z,10.82
2018-03-14T11:04:04.440Z,8.80
2018-03-14T11:06:32.418Z,9.07
2018-03-14T11:09:00.424Z,10.98
2018-03-14T11:11:28.425Z,8.60
2018-03-14T11:13:56.412Z,11.02
2018-03-14T11:16:25.183Z,10.27
2018-03-14T11:18:53.184Z,14.10
2018-03-14T11:21:21.180Z,11.80
2018-03-14T11:23:49.948Z,8.48
2018-03-14T11:26:17.952Z,11.35
2018-03-14T11:28:45.932Z,9.00
2018-03-14T11:31:13.947Z,8.57
2018-03-14T11:33:41.961Z,10.50
2018-03-14T11:36:09.945Z,10.13
2018-03-14T11:38:37.948Z,10.32
2018-03-14T11:41:05.960Z,11.20
2018-03-14T11:43:34.712Z,8.88
2018-03-14T11:46:02.717Z,10.35
2018-03-14T11:48:30.721Z,10.10
2018-03-14T11:50:59.481Z,8.15
2018-03-14T11:53:27.505Z,9.55
2018-03-14T11:55:55.496Z,8.63
2018-03-14T11:58:24.240Z,9.65
2018-03-14T12:00:52.241Z,10.23
2018-03-14T12:03:20.239Z,10.10
2018-03-14T12:05:48.224Z,9.57
2018-03-14T12:08:16.220Z,10.05
2018-03-14T12:10:44.980Z,8.32
2018-03-14T12:13:12.964Z,11.25
2018-03-14T12:15:40.972Z,10.10
2018-03-14T12:18:08.963Z,6.70
2018-03-14T12:20:37.716Z,7.70
2018-03-14T12:23:05.712Z,8.60
2018-03-14T12:25:33.712Z,7.60
2018-03-14T12:28:01.692Z,7.82
2018-03-14T12:30:29.693Z,6.80
2018-03-14T12:32:58.464Z,8.13
2018-03-14T12:35:26.451Z,7.65
2018-03-14T12:37:54.448Z,13.88
2018-03-14T12:40:22.448Z,11.27
2018-03-14T12:42:51.208Z,12.90
2018-03-14T12:45:19.213Z,7.65
2018-03-14T12:47:47.213Z,6.78
2018-03-14T12:50:15.961Z,6.93
2018-03-14T12:52:43.964Z,8.75
2018-03-14T12:55:11.974Z,8.80
2018-03-14T12:57:39.940Z,5.97
2018-03-14T13:00:07.940Z,7.12
2018-03-14T13:02:36.708Z,8.95
2018-03-14T13:05:04.692Z,7.87
2018-03-14T13:07:32.704Z,7.78
2018-03-14T13:10:01.459Z,6.87
2018-03-14T13:12:29.447Z,8.27
2018-03-14T13:14:57.444Z,7.57
2018-03-14T13:17:25.435Z,8.88
2018-03-14T13:19:53.422Z,5.97
2018-03-14T13:22:21.417Z,8.32
2018-03-14T13:24:49.420Z,7.82
2018-03-14T13:27:17.431Z,12.40
2018-03-14T13:29:45.428Z,9.25
2018-03-14T13:32:13.428Z,8.65
2018-03-14T13:34:41.412Z,7.55
2018-03-14T13:37:09.416Z,8.00
2018-03-14T13:39:38.174Z,7.78
2018-03-14T13:42:06.164Z,9.65
2018-03-14T13:44:34.160Z,7.95
2018-03-14T13:47:02.160Z,7.60
2018-03-14T13:49:30.912Z,8.15
2018-03-14T13:51:58.917Z,11.70
2018-03-14T13:54:26.921Z,9.60
2018-03-14T13:56:54.904Z,7.90
2018-03-14T13:59:22.908Z,7.80
2018-03-14T14:01:50.907Z,8.30
2018-03-14T14:04:18.915Z,5.93
2018-03-14T14:06:46.896Z,7.70
2018-03-14T14:09:14.896Z,10.02
2018-03-14T14:11:43.800Z,6.80
2018-03-14T14:14:11.804Z,8.43
2018-03-14T14:16:40.576Z,5.35
2018-03-14T14:19:08.572Z,7.40
2018-03-14T14:21:36.557Z,8.00
2018-03-14T14:24:04.552Z,8.15
2018-03-14T14:26:33.313Z,8.80
2018-03-14T14:29:01.352Z,8.32
2018-03-14T14:31:30.129Z,6.18
2018-03-14T14:33:58.112Z,8.07
2018-03-14T14:36:26.112Z,7.85
2018-03-14T14:38:54.884Z,8.68
2018-03-14T14:41:24.385Z,7.57
2018-03-14T14:43:53.874Z,9.38
2018-03-14T14:46:21.924Z,13.40
2018-03-14T14:48:50.676Z,8.23
2018-03-14T14:51:18.676Z,9.77
2018-03-14T14:53:46.684Z,7.80
2018-03-14T14:56:14.673Z,7.75
2018-03-14T14:58:43.440Z,6.43
2018-03-14T15:01:11.437Z,7.53
2018-03-14T15:03:39.429Z,6.82
2018-03-14T15:06:07.419Z,8.07
2018-03-14T15:08:35.417Z,6.22
2018-03-14T15:11:04.161Z,8.05
2018-03-14T15:13:32.156Z,9.52
2018-03-14T15:16:00.152Z,9.00
2018-03-14T15:18:28.136Z,8.30
2018-03-14T15:20:57.645Z,7.32
2018-03-14T15:23:25.636Z,6.22
2018-03-14T15:25:53.621Z,7.75
2018-03-14T15:28:21.617Z,6.97
2018-03-14T15:30:50.388Z,5.53
2018-03-14T15:33:18.379Z,5.85
2018-03-14T15:35:46.372Z,7.22
2018-03-14T15:38:15.137Z,6.53
2018-03-14T15:40:43.131Z,6.70
2018-03-14T15:43:11.120Z,6.25
2018-03-14T15:45:39.112Z,6.47
2018-03-14T15:48:07.101Z,8.32
2018-03-14T15:50:35.097Z,7.53
2018-03-14T15:53:03.860Z,5.72
2018-03-14T15:55:31.848Z,6.50
2018-03-14T15:57:59.844Z,7.00
2018-03-14T16:00:27.844Z,6.90
2018-03-14T16:02:56.593Z,7.53
2018-03-14T16:05:24.585Z,6.53
2018-03-14T16:07:52.582Z,7.70
2018-03-14T16:10:20.564Z,8.93
2018-03-14T16:12:48.569Z,8.13
2018-03-14T16:15:17.344Z,6.70
2018-03-14T16:17:45.331Z,8.05
2018-03-14T16:20:13.328Z,8.30
2018-03-14T16:22:42.096Z,8.00
2018-03-14T16:25:10.076Z,6.80
2018-03-14T16:27:38.070Z,8.27
2018-03-14T16:30:06.072Z,5.45
2018-03-14T16:32:34.057Z,7.78
2018-03-14T16:35:02.062Z,6.35
2018-03-14T16:37:30.816Z,9.25
2018-03-14T16:39:58.800Z,7.57
2018-03-14T16:42:27.556Z,7.55
2018-03-14T16:44:55.559Z,6.12
2018-03-14T16:47:23.549Z,6.50
2018-03-14T16:49:51.549Z,6.78
2018-03-14T16:52:19.553Z,6.72
2018-03-14T16:54:47.546Z,6.95
2018-03-14T16:57:16.303Z,6.72
2018-03-14T16:59:44.299Z,5.03
2018-03-14T17:02:12.285Z,9.13
2018-03-14T17:04:40.288Z,6.25
2018-03-14T17:07:09.076Z,6.03
2018-03-14T17:09:37.056Z,6.20
2018-03-14T17:12:05.058Z,5.28
2018-03-14T17:14:33.832Z,4.65
2018-03-14T17:17:01.815Z,6.00
2018-03-14T17:19:29.811Z,4.65
2018-03-14T17:21:57.808Z,5.00
2018-03-14T17:24:26.560Z,6.70
2018-03-14T17:26:54.557Z,4.37
2018-03-14T17:29:22.553Z,7.10
2018-03-14T17:31:50.532Z,11.07
2018-03-14T17:34:18.536Z,6.60
2018-03-14T17:36:47.292Z,7.28
2018-03-14T17:39:15.280Z,6.37
2018-03-14T17:41:43.280Z,6.85
2018-03-14T17:44:11.275Z,7.68
2018-03-14T17:46:40.028Z,6.57
2018-03-14T17:49:08.032Z,5.15
2018-03-14T17:51:38.036Z,6.65
2018-03-14T17:54:06.081Z,7.82
2018-03-14T17:56:34.848Z,7.95
2018-03-14T17:59:02.852Z,8.40
2018-03-14T18:01:30.841Z,7.25
2018-03-14T18:03:59.605Z,8.05
2018-03-14T18:06:27.605Z,7.65
2018-03-14T18:08:55.592Z,6.87
2018-03-14T18:11:23.596Z,6.82
2018-03-14T18:13:52.359Z,7.28
2018-03-14T18:16:20.343Z,9.02
2018-03-14T18:18:48.351Z,8.95
2018-03-14T18:21:16.346Z,6.80
2018-03-14T18:23:45.092Z,8.77
2018-03-14T18:26:13.088Z,8.30
2018-03-14T18:28:41.088Z,8.55
2018-03-14T18:31:10.590Z,8.48
2018-03-14T18:33:38.598Z,7.68
2018-03-14T18:36:06.588Z,9.25
2018-03-14T18:38:35.344Z,8.93
2018-03-14T18:41:03.375Z,8.30
2018-03-14T18:43:31.336Z,10.00
2018-03-14T18:45:59.321Z,7.40
2018-03-14T18:48:27.333Z,8.30
2018-03-14T18:50:56.096Z,8.55
2018-03-14T18:53:24.089Z,9.77
2018-03-14T18:55:52.101Z,9.85
2018-03-14T18:58:20.864Z,8.60
2018-03-14T19:00:48.844Z,7.75
2018-03-14T19:03:16.850Z,12.32
2018-03-14T19:05:45.609Z,8.48
2018-03-14T19:08:13.605Z,8.20
2018-03-14T19:10:41.599Z,8.38
2018-03-14T19:13:09.605Z,9.60
2018-03-14T19:15:38.352Z,7.78
2018-03-14T19:18:06.350Z,7.70
2018-03-14T19:20:34.344Z,8.07
2018-03-14T19:23:02.325Z,7.65
2018-03-14T19:25:30.320Z,8.70
2018-03-14T19:27:58.320Z,11.18
2018-03-14T19:30:27.076Z,8.85
2018-03-14T19:32:55.077Z,9.90
2018-03-14T19:35:24.585Z,6.65
2018-03-14T19:37:52.572Z,8.65
2018-03-14T19:40:20.587Z,9.15
2018-03-14T19:42:49.339Z,8.48
2018-03-14T19:45:17.332Z,8.00
2018-03-14T19:47:45.337Z,8.80
2018-03-14T19:50:14.100Z,11.18
2018-03-14T19:52:42.097Z,9.43
2018-03-14T19:55:10.092Z,9.90
2018-03-14T19:57:38.092Z,11.02
2018-03-14T20:00:06.844Z,8.25
2018-03-14T20:02:34.853Z,11.95
2018-03-14T20:05:02.876Z,9.70
2018-03-14T20:07:30.860Z,10.20
2018-03-14T20:09:58.857Z,12.25
2018-03-14T20:12:26.872Z,9.27
2018-03-14T20:14:54.857Z,8.57
2018-03-14T20:17:22.876Z,8.63
2018-03-14T20:19:50.855Z,11.50
2018-03-14T20:22:19.692Z,14.50
2018-03-14T20:24:48.525Z,13.02
2018-03-14T20:27:17.385Z,11.27
2018-03-14T20:29:45.385Z,10.02
2018-03-14T20:32:13.379Z,6.78
2018-03-14T20:34:41.386Z,9.32
2018-03-14T20:37:09.372Z,14.18
2018-03-14T20:39:37.372Z,12.70
2018-03-14T20:42:06.148Z,12.18
2018-03-14T20:44:34.133Z,12.10
2018-03-14T20:47:02.128Z,9.07
2018-03-14T20:49:30.916Z,12.13
2018-03-14T20:51:58.893Z,14.02
2018-03-14T20:54:26.990Z,10.27
2018-03-14T20:56:55.780Z,10.27
2018-03-14T20:59:23.930Z,11.80
2018-03-14T21:01:51.952Z,12.43
2018-03-14T21:04:19.952Z,10.52
2018-03-14T21:06:48.739Z,14.85
2018-03-14T21:09:16.748Z,10.70
2018-03-14T21:11:45.517Z,12.88
2018-03-14T21:14:13.505Z,13.05
2018-03-14T21:16:41.509Z,13.90
2018-03-14T21:19:10.280Z,10.05
2018-03-14T21:21:39.254Z,13.15
2018-03-14T21:24:07.258Z,12.27
2018-03-14T21:26:35.261Z,9.57
2018-03-14T21:29:04.045Z,10.45
2018-03-14T21:31:32.091Z,8.75
2018-03-14T21:34:00.100Z,12.57
2018-03-14T21:36:28.121Z,9.95
2018-03-14T21:38:56.102Z,10.38
2018-03-14T21:41:24.096Z,11.40
2018-03-14T21:43:52.857Z,12.55
2018-03-14T21:46:20.868Z,10.32
2018-03-14T21:48:49.632Z,11.07
2018-03-14T21:51:17.639Z,14.68
2018-03-14T21:53:45.637Z,9.68
2018-03-14T21:56:14.402Z,9.85
2018-03-14T21:58:42.392Z,13.05
2018-03-14T22:01:10.504Z,11.68
2018-03-14T22:03:39.276Z,13.15
2018-03-14T22:06:07.323Z,13.75
2018-03-14T22:08:36.094Z,14.85
2018-03-14T22:11:04.864Z,11.27
2018-03-14T22:13:33.331Z,13.82
2018-03-14T22:16:01.342Z,10.80
2018-03-14T22:18:29.348Z,12.63
2018-03-14T22:20:58.106Z,9.05
2018-03-14T22:23:26.114Z,12.20
2018-03-14T22:25:54.119Z,12.50
2018-03-14T22:28:22.875Z,10.07
2018-03-14T22:30:50.872Z,11.27
2018-03-14T22:33:18.880Z,15.25
2018-03-14T22:35:47.644Z,12.90
2018-03-14T22:38:15.644Z,11.23
2018-03-14T22:40:43.652Z,10.05
2018-03-14T22:43:12.430Z,12.80
2018-03-14T22:45:40.412Z,10.95
2018-03-14T22:48:08.420Z,10.48
2018-03-14T22:50:37.182Z,13.18
2018-03-14T22:53:05.184Z,11.07
2018-03-14T22:55:33.196Z,11.68
2018-03-14T22:58:01.954Z,10.40
2018-03-14T23:00:29.965Z,10.68
2018-03-14T23:02:58.744Z,9.85
2018-03-14T23:05:26.728Z,14.23
2018-03-14T23:07:54.739Z,15.27
2018-03-14T23:10:23.516Z,11.43
2018-03-14T23:12:51.497Z,9.40
2018-03-14T23:15:19.498Z,10.85
2018-03-14T23:17:48.272Z,13.68
2018-03-14T23:20:16.255Z,11.65
2018-03-14T23:22:44.252Z,6.80
2018-03-14T23:25:12.244Z,9.90
2018-03-14T23:27:41.038Z,10.90
2018-03-14T23:30:08.996Z,10.15
2018-03-14T23:32:37.008Z,11.38
2018-03-14T23:35:05.781Z,15.15
2018-03-14T23:37:33.785Z,8.65
2018-03-14T23:40:01.773Z,10.10
2018-03-14T23:42:30.529Z,9.13
2018-03-14T23:44:58.529Z,9.45
2018-03-14T23:47:26.545Z,9.15
2018-03-14T23:49:55.294Z,8.02
2018-03-14T23:52:23.292Z,11.85
2018-03-14T23:54:51.288Z,7.30
2018-03-14T23:57:19.280Z,10.10
2018-03-14T23:59:47.280Z,8.00
